WXM80 ListenWXM80 Stop

You find our weather info also at:

UK Metoffice

WeatherCloud

Weather Underground

Northeastern Weather Network

AWEKAS

Citizen Weather Observer Program (CWOP)

HAMweather, WeatherForYou, PWS Weather


Weather Underground History page Text

Daily Summary for July 16, 2017 Units:  Metric    English   Both
« Previous Day
Next Day »
Daily Weekly Monthly Yearly Custom
  High: Low: Average:
Temperature: 32.9 °C 18.3 °C 25.4 °C
Dew Point: 22.4 °C 17.1 °C 19.6 °C
Humidity: 97 % 45 % 73 %
Wind Speed: 7.2 km/h 0 km/h 1.1 km/h
Wind Gust: 9.3 km/h - -
Wind:- - SW
Pressure: 1014.4 hPa 1011.4 hPa -
Precipitation: 0 mm    
Historical Graphs
 
 
Tabular Data for July 16, 2017
Time Temperature Dew Point Pressure Wind Wind Speed Wind Gust Humidity Rainfall Rate (Hourly)
00:04 21.6 °C 18.2 °C 1011.7 hPa Calm     81 % 0 mm
00:09 21.5 °C 18.3 °C 1011.7 hPa Calm     82 % 0 mm
00:14 21.4 °C 18.4 °C 1011.7 hPa WSW 0.2 km/h 1.9 km/h 83 % 0 mm
00:19 21.4 °C 18.4 °C 1011.7 hPa Calm     83 % 0 mm
00:24 21.3 °C 18.3 °C 1011.7 hPa Calm     83 % 0 mm
00:29 21.3 °C 18.4 °C 1011.7 hPa West 1.4 km/h 5.6 km/h 84 % 0 mm
00:34 21.2 °C 18.2 °C 1011.7 hPa Calm     83 % 0 mm
00:39 21.2 °C 18.3 °C 1011.7 hPa West 1.9 km/h 5.6 km/h 84 % 0 mm
00:44 21.1 °C 18.3 °C 1011.4 hPa Calm     84 % 0 mm
00:49 21.1 °C 18.2 °C 1011.7 hPa West 0.5 km/h 1.9 km/h 84 % 0 mm
00:54 21 °C 18.2 °C 1011.7 hPa West 0.5 km/h 3.2 km/h 84 % 0 mm
01:00 20.9 °C 18.1 °C 1011.7 hPa Calm     84 % 0 mm
01:05 20.9 °C 18.1 °C 1011.7 hPa Calm   1.6 km/h 84 % 0 mm
01:10 20.9 °C 18.1 °C 1011.7 hPa Calm   1.9 km/h 84 % 0 mm
01:15 20.9 °C 18.1 °C 1011.4 hPa Calm   1.9 km/h 84 % 0 mm
01:20 20.9 °C 18.1 °C 1011.4 hPa West 2.1 km/h 3.7 km/h 84 % 0 mm
01:25 20.9 °C 18.3 °C 1011.4 hPa Calm   1.6 km/h 85 % 0 mm
01:30 20.9 °C 18.3 °C 1011.4 hPa West 0.2 km/h 1.9 km/h 85 % 0 mm
01:35 20.8 °C 18.2 °C 1011.4 hPa Calm   1.9 km/h 85 % 0 mm
01:40 20.8 °C 18.4 °C 1011.4 hPa Calm     86 % 0 mm
01:45 20.8 °C 18.3 °C 1011.4 hPa Calm     86 % 0 mm
01:50 20.8 °C 18.3 °C 1011.4 hPa Calm     86 % 0 mm
01:55 20.7 °C 18.3 °C 1011.4 hPa Calm     86 % 0 mm
02:00 20.7 °C 18.2 °C 1011.4 hPa Calm   1.6 km/h 86 % 0 mm
02:05 20.6 °C 18.2 °C 1011.7 hPa Calm     86 % 0 mm
02:10 20.6 °C 18.1 °C 1011.4 hPa West 0.3 km/h 1.9 km/h 86 % 0 mm
02:15 20.5 °C 18.1 °C 1011.4 hPa Calm   1.9 km/h 86 % 0 mm
02:20 20.4 °C 18.2 °C 1011.4 hPa Calm   1.9 km/h 87 % 0 mm
02:25 20.4 °C 18.2 °C 1011.4 hPa Calm     87 % 0 mm
02:30 20.3 °C 18.1 °C 1011.7 hPa Calm     87 % 0 mm
02:35 20.3 °C 18.1 °C 1011.7 hPa Calm     87 % 0 mm
02:40 20.2 °C 18 °C 1011.7 hPa West 0.3 km/h 1.9 km/h 87 % 0 mm
02:45 20.2 °C 17.9 °C 1011.7 hPa West 0.3 km/h 1.9 km/h 87 % 0 mm
02:50 20.1 °C 18 °C 1011.4 hPa Calm     88 % 0 mm
02:55 20.1 °C 18 °C 1011.7 hPa Calm     88 % 0 mm
03:00 19.9 °C 17.9 °C 1011.4 hPa Calm     88 % 0 mm
03:05 19.9 °C 17.9 °C 1011.4 hPa Calm     88 % 0 mm
03:10 19.9 °C 17.8 °C 1011.4 hPa Calm     88 % 0 mm
03:15 19.8 °C 17.8 °C 1011.7 hPa Calm     88 % 0 mm
03:20 19.8 °C 17.7 °C 1011.4 hPa Calm     88 % 0 mm
03:21 19.8 °C 17.7 °C 1011.4 hPa Calm     88 % 0 mm
03:26 19.7 °C 17.8 °C 1011.4 hPa Calm   1.6 km/h 89 % 0 mm
03:31 19.6 °C 17.8 °C 1011.4 hPa Calm   1.6 km/h 89 % 0 mm
03:36 19.6 °C 17.7 °C 1011.4 hPa Calm     89 % 0 mm
03:41 19.5 °C 17.7 °C 1011.4 hPa Calm     89 % 0 mm
03:46 19.4 °C 17.6 °C 1011.4 hPa Calm     89 % 0 mm
03:51 19.4 °C 17.6 °C 1011.4 hPa Calm   1.6 km/h 89 % 0 mm
03:56 19.3 °C 17.7 °C 1011.4 hPa Calm   1.6 km/h 90 % 0 mm
04:01 19.3 °C 17.6 °C 1011.4 hPa Calm     90 % 0 mm
04:06 19.2 °C 17.5 °C 1011.4 hPa Calm     90 % 0 mm
04:11 19.2 °C 17.5 °C 1011.4 hPa Calm     90 % 0 mm
04:16 19.1 °C 17.6 °C 1011.4 hPa Calm     91 % 0 mm
04:21 19.1 °C 17.6 °C 1011.4 hPa Calm     91 % 0 mm
04:26 19 °C 17.5 °C 1011.7 hPa Calm   1.9 km/h 91 % 0 mm
04:31 18.9 °C 17.3 °C 1011.7 hPa Calm     90 % 0 mm
04:36 18.8 °C 17.2 °C 1011.7 hPa Calm     90 % 0 mm
04:41 18.8 °C 17.2 °C 1011.7 hPa Calm     90 % 0 mm
04:46 18.8 °C 17.3 °C 1011.7 hPa Calm     91 % 0 mm
04:51 18.7 °C 17.2 °C 1011.7 hPa Calm     91 % 0 mm
04:56 18.7 °C 17.2 °C 1011.7 hPa Calm     91 % 0 mm
05:01 18.6 °C 17.1 °C 1011.7 hPa Calm     91 % 0 mm
05:06 18.6 °C 17.1 °C 1011.7 hPa Calm     91 % 0 mm
05:11 18.5 °C 17.2 °C 1011.7 hPa Calm     92 % 0 mm
05:16 18.5 °C 17.2 °C 1012.1 hPa Calm     92 % 0 mm
05:21 18.4 °C 17.1 °C 1012.1 hPa West 0.3 km/h 1.9 km/h 92 % 0 mm
05:26 18.4 °C 17.1 °C 1012.1 hPa Calm   1.9 km/h 92 % 0 mm
05:31 18.4 °C 17.2 °C 1012.1 hPa Calm     93 % 0 mm
05:36 18.4 °C 17.2 °C 1012.1 hPa Calm     93 % 0 mm
05:41 18.4 °C 17.2 °C 1012.1 hPa Calm     93 % 0 mm
05:46 18.3 °C 17.2 °C 1012.1 hPa Calm     93 % 0 mm
05:51 18.3 °C 17.2 °C 1012.1 hPa Calm     93 % 0 mm
05:56 18.3 °C 17.2 °C 1012.4 hPa Calm   1.6 km/h 93 % 0 mm
06:01 18.3 °C 17.2 °C 1012.4 hPa Calm     93 % 0 mm
06:06 18.3 °C 17.2 °C 1012.4 hPa Calm     93 % 0 mm
06:11 18.3 °C 17.2 °C 1012.4 hPa West 0.2 km/h 1.9 km/h 93 % 0 mm
06:16 18.4 °C 17.4 °C 1012.4 hPa West 0.8 km/h   94 % 0 mm
06:21 18.4 °C 17.4 °C 1012.4 hPa West 0.3 km/h 1.9 km/h 94 % 0 mm
06:27 18.5 °C 17.5 °C 1012.4 hPa Calm     94 % 0 mm
06:32 18.6 °C 17.8 °C 1012.4 hPa Calm     95 % 0 mm
06:37 18.8 °C 18.2 °C 1012.4 hPa Calm     96 % 0 mm
06:42 19.1 °C 18.4 °C 1012.4 hPa Calm     96 % 0 mm
06:47 19.2 °C 18.5 °C 1012.4 hPa West 0.2 km/h   96 % 0 mm
06:52 19.3 °C 18.7 °C 1012.4 hPa West 0.2 km/h 1.9 km/h 96 % 0 mm
06:57 19.6 °C 18.9 °C 1012.8 hPa Calm   1.9 km/h 96 % 0 mm
07:02 19.7 °C 19.1 °C 1012.8 hPa West 0.2 km/h 1.9 km/h 96 % 0 mm
07:07 19.9 °C 19.4 °C 1012.8 hPa Calm   1.9 km/h 97 % 0 mm
07:12 20.1 °C 19.4 °C 1012.8 hPa West 1.4 km/h 5.6 km/h 96 % 0 mm
07:17 20.3 °C 19.7 °C 1012.8 hPa WNW 1.6 km/h 5.6 km/h 96 % 0 mm
07:22 20.5 °C 19.8 °C 1012.8 hPa WNW 1.3 km/h 3.7 km/h 96 % 0 mm
07:27 20.7 °C 20.1 °C 1012.8 hPa WNW 1 km/h 4.8 km/h 96 % 0 mm
07:32 20.9 °C 20.2 °C 1012.8 hPa WNW 0.6 km/h 3.7 km/h 96 % 0 mm
07:37 21.1 °C 20.2 °C 1012.8 hPa WNW 3.9 km/h 7.4 km/h 95 % 0 mm
07:42 21.2 °C 20.2 °C 1012.8 hPa WNW 0.6 km/h 1.9 km/h 94 % 0 mm
07:47 21.3 °C 20.1 °C 1012.8 hPa WSW 2.4 km/h 5.6 km/h 93 % 0 mm
07:52 21.3 °C 19.8 °C 1012.8 hPa West 1.8 km/h 5.6 km/h 91 % 0 mm
07:57 21.4 °C 19.7 °C 1012.8 hPa WNW 1.4 km/h 5.6 km/h 90 % 0 mm
08:02 21.5 °C 19.8 °C 1012.8 hPa WSW 3.1 km/h 5.6 km/h 90 % 0 mm
08:07 21.6 °C 19.5 °C 1012.8 hPa NW 3.5 km/h 8 km/h 88 % 0 mm
08:12 21.6 °C 19.6 °C 1013.1 hPa NW 5.3 km/h 7.4 km/h 88 % 0 mm
08:17 21.7 °C 19.4 °C 1012.8 hPa WNW 2.7 km/h 3.7 km/h 87 % 0 mm
08:18 21.7 °C 19.4 °C 1012.8 hPa WNW 3.2 km/h 5.6 km/h 87 % 0 mm
08:23 21.7 °C 19.4 °C 1012.8 hPa WNW 2.1 km/h 5.6 km/h 87 % 0 mm
08:28 21.8 °C 19.3 °C 1013.1 hPa NW 4.2 km/h 5.6 km/h 86 % 0 mm
08:33 21.8 °C 19.4 °C 1013.1 hPa West 1 km/h 5.6 km/h 86 % 0 mm
08:38 21.9 °C 19.4 °C 1013.1 hPa WNW 1.3 km/h 5.6 km/h 86 % 0 mm
08:43 21.9 °C 19.3 °C 1013.1 hPa WNW 3.7 km/h 8 km/h 85 % 0 mm
08:48 22 °C 19.3 °C 1013.1 hPa NW 2.6 km/h 7.4 km/h 85 % 0 mm
08:53 22.1 °C 19.7 °C 1013.1 hPa WSW 1.9 km/h 8 km/h 86 % 0 mm
08:58 22.2 °C 19.3 °C 1013.1 hPa North 0.8 km/h 3.7 km/h 84 % 0 mm
09:04 22.2 °C 19.4 °C 1013.1 hPa NW 2.7 km/h 5.6 km/h 84 % 0 mm
09:08 22.3 °C 19.5 °C 1013.1 hPa West 1.8 km/h 5.6 km/h 84 % 0 mm
09:13 22.4 °C 19.6 °C 1012.8 hPa Calm     84 % 0 mm
09:19 22.4 °C 19.6 °C 1012.8 hPa NW 1.1 km/h 5.6 km/h 84 % 0 mm
09:24 22.5 °C 19.4 °C 1012.8 hPa SSE 0.2 km/h 5.6 km/h 83 % 0 mm
09:29 22.6 °C 19.3 °C 1012.8 hPa NW 2.6 km/h 5.6 km/h 82 % 0 mm
09:34 22.6 °C 19.4 °C 1012.8 hPa WNW 4.3 km/h 9.3 km/h 82 % 0 mm
09:39 22.7 °C 19.5 °C 1012.8 hPa WNW 3.9 km/h 6.4 km/h 82 % 0 mm
09:44 22.8 °C 19.6 °C 1012.8 hPa NNW 0.2 km/h 1.9 km/h 82 % 0 mm
09:49 23.1 °C 20 °C 1012.8 hPa WSW 1.9 km/h 5.6 km/h 83 % 0 mm
09:54 23.3 °C 20.1 °C 1012.8 hPa West 5.5 km/h 7.4 km/h 82 % 0 mm
09:59 23.6 °C 20.1 °C 1012.8 hPa West 1.9 km/h 5.6 km/h 81 % 0 mm
10:04 23.9 °C 20.5 °C 1012.8 hPa Calm   3.7 km/h 81 % 0 mm
10:09 24.5 °C 20.8 °C 1013.1 hPa NW 2.3 km/h 9.3 km/h 80 % 0 mm
10:14 25.1 °C 20.5 °C 1012.8 hPa WNW 5.1 km/h 9.3 km/h 76 % 0 mm
10:19 25.7 °C 21.6 °C 1012.8 hPa WSW 1.9 km/h 5.6 km/h 78 % 0 mm
10:25 26.2 °C 21.4 °C 1012.8 hPa WNW 3.5 km/h 4.8 km/h 75 % 0 mm
10:30 26.7 °C 21.9 °C 1012.8 hPa West 2.7 km/h 5.6 km/h 75 % 0 mm
10:35 27.3 °C 22.4 °C 1013.1 hPa WSW 0.3 km/h 1.9 km/h 75 % 0 mm
10:40 27.7 °C 21.8 °C 1013.1 hPa WSW 3.1 km/h 6.4 km/h 70 % 0 mm
10:45 28.1 °C 22.3 °C 1013.1 hPa NW 0.5 km/h 1.9 km/h 71 % 0 mm
10:50 28.6 °C 22.3 °C 1013.1 hPa NW 2.6 km/h 6.4 km/h 69 % 0 mm
10:55 28.8 °C 21.3 °C 1013.1 hPa West 2.7 km/h 5.6 km/h 64 % 0 mm
11:00 29.1 °C 22.3 °C 1013.1 hPa WSW 1.3 km/h 3.7 km/h 67 % 0 mm
11:05 29.4 °C 22.2 °C 1013.1 hPa NNE 0.3 km/h 3.7 km/h 65 % 0 mm
11:10 29.7 °C 21.7 °C 1012.8 hPa West 5.1 km/h 9.3 km/h 62 % 0 mm
11:15 29.9 °C 21.9 °C 1013.1 hPa NW 1.9 km/h 3.7 km/h 62 % 0 mm
11:20 30.1 °C 22 °C 1013.1 hPa North 3.2 km/h 5.6 km/h 62 % 0 mm
11:25 30.4 °C 21.8 °C 1013.1 hPa North 1.6 km/h 5.6 km/h 60 % 0 mm
11:30 30.6 °C 22.4 °C 1013.1 hPa NW 1.1 km/h 5.6 km/h 62 % 0 mm
11:35 30.7 °C 20.9 °C 1013.1 hPa West 3.2 km/h 5.6 km/h 56 % 0 mm
11:40 30.8 °C 22.1 °C 1012.8 hPa WNW 1.3 km/h 6.4 km/h 60 % 0 mm
11:45 30.8 °C 20.4 °C 1012.8 hPa WNW 3.4 km/h 5.6 km/h 54 % 0 mm
11:50 30.9 °C 20.8 °C 1012.8 hPa NW 1.4 km/h 8 km/h 55 % 0 mm
11:55 31 °C 20.6 °C 1012.8 hPa WNW 1.4 km/h 5.6 km/h 54 % 0 mm
12:00 31.1 °C 20.1 °C 1012.8 hPa WNW 3.5 km/h 9.3 km/h 52 % 0 mm
12:05 31.2 °C 21.3 °C 1012.8 hPa North 2.1 km/h 9.3 km/h 56 % 0 mm
12:10 31.1 °C 20.4 °C 1012.8 hPa NW 1 km/h 5.6 km/h 53 % 0 mm
12:15 31.2 °C 20.8 °C 1012.8 hPa SSW 2.7 km/h 7.4 km/h 54 % 0 mm
12:20 31.3 °C 21.4 °C 1012.8 hPa West 0.2 km/h 1.9 km/h 56 % 0 mm
12:25 31.4 °C 20.7 °C 1012.8 hPa WNW 4.8 km/h 7.4 km/h 53 % 0 mm
12:30 31.4 °C 21 °C 1012.8 hPa NW 0.3 km/h 5.6 km/h 54 % 0 mm
12:35 31.5 °C 20.8 °C 1012.8 hPa North 4.2 km/h 7.4 km/h 53 % 0 mm
12:40 31.6 °C 20.9 °C 1012.4 hPa WSW 3.5 km/h 5.6 km/h 53 % 0 mm
12:45 31.7 °C 22.4 °C 1012.4 hPa NE 0.5 km/h 1.6 km/h 58 % 0 mm
12:50 31.8 °C 21 °C 1012.4 hPa SSW 2.3 km/h 4.8 km/h 53 % 0 mm
12:56 31.8 °C 20.8 °C 1012.4 hPa WNW 3.2 km/h 8 km/h 52 % 0 mm
13:01 31.9 °C 20.5 °C 1012.4 hPa NW 0.6 km/h 5.6 km/h 51 % 0 mm
13:02 31.9 °C 20.5 °C 1012.4 hPa NW 0.3 km/h 3.7 km/h 51 % 0 mm
13:07 32 °C 20.6 °C 1012.8 hPa NW 2.7 km/h 8 km/h 51 % 0 mm
13:12 32.1 °C 20.3 °C 1012.8 hPa WNW 2.4 km/h 5.6 km/h 50 % 0 mm
13:17 32.1 °C 20.7 °C 1012.8 hPa WNW 1 km/h 5.6 km/h 51 % 0 mm
13:22 32.1 °C 20.3 °C 1012.8 hPa WNW 0.8 km/h 5.6 km/h 50 % 0 mm
13:27 32.1 °C 21.3 °C 1012.8 hPa NW 2.6 km/h 5.6 km/h 53 % 0 mm
13:32 32.1 °C 20.7 °C 1012.8 hPa West 1.6 km/h 4.8 km/h 51 % 0 mm
13:37 32.1 °C 20.4 °C 1012.8 hPa WSW 0.2 km/h 3.7 km/h 50 % 0 mm
13:42 32.2 °C 21.1 °C 1012.8 hPa WNW 0.5 km/h 3.7 km/h 52 % 0 mm
13:47 32.3 °C 20.8 °C 1012.8 hPa SW 3.2 km/h 9.3 km/h 51 % 0 mm
13:52 32.3 °C 20.3 °C 1012.4 hPa WSW 0.6 km/h 5.6 km/h 49 % 0 mm
13:54 32.3 °C 21.6 °C 1012.8 hPa NW 0.6 km/h 3.7 km/h 53 % 0 mm
13:59 32.3 °C 21.2 °C 1012.8 hPa WNW 2.9 km/h 9.3 km/h 52 % 0 mm
14:04 32.4 °C 20.6 °C 1012.8 hPa NW 3.2 km/h 5.6 km/h 50 % 0 mm
14:09 32.4 °C 20.3 °C 1012.8 hPa WNW 1.8 km/h 6.4 km/h 49 % 0 mm
14:14 32.4 °C 21.3 °C 1012.8 hPa WNW 0.2 km/h 1.9 km/h 52 % 0 mm
14:19 32.6 °C 21.4 °C 1012.4 hPa WSW 2.6 km/h 5.6 km/h 52 % 0 mm
14:24 32.5 °C 19.7 °C 1012.4 hPa NNW 1.4 km/h 5.6 km/h 47 % 0 mm
14:27 32.6 °C 20.4 °C 1012.4 hPa WNW 1.3 km/h 1.9 km/h 49 % 0 mm
14:32 32.6 °C 20.4 °C 1012.4 hPa WNW 1.9 km/h 9.3 km/h 49 % 0 mm
14:37 32.7 °C 21.2 °C 1012.4 hPa North 2.3 km/h 5.6 km/h 51 % 0 mm
14:42 32.7 °C 20.2 °C 1012.4 hPa SW 2.3 km/h 5.6 km/h 48 % 0 mm
14:47 32.7 °C 20.6 °C 1012.4 hPa WNW 2.7 km/h 5.6 km/h 49 % 0 mm
14:52 32.8 °C 21.6 °C 1012.4 hPa NNW 1.8 km/h 5.6 km/h 52 % 0 mm
14:57 32.8 °C 20.4 °C 1012.4 hPa NW 2.1 km/h 5.6 km/h 48 % 0 mm
15:02 32.8 °C 19.7 °C 1012.4 hPa NW 2.4 km/h 4.8 km/h 46 % 0 mm
15:07 32.8 °C 21.1 °C 1012.4 hPa WNW 0.6 km/h 5.6 km/h 50 % 0 mm
15:12 32.8 °C 21.1 °C 1012.4 hPa NW 1 km/h 3.7 km/h 50 % 0 mm
15:17 32.8 °C 21.3 °C 1012.4 hPa NE 3.5 km/h 5.6 km/h 51 % 0 mm
15:22 32.7 °C 20.6 °C 1012.4 hPa NW 1.4 km/h 5.6 km/h 49 % 0 mm
15:27 32.8 °C 21 °C 1012.4 hPa North 1.4 km/h 3.2 km/h 50 % 0 mm
15:32 32.9 °C 19.7 °C 1012.4 hPa WNW 2.4 km/h 5.6 km/h 46 % 0 mm
15:37 32.8 °C 20 °C 1012.4 hPa North 7.2 km/h 9.3 km/h 47 % 0 mm
15:42 32.6 °C 19.8 °C 1012.4 hPa NNE 3.5 km/h 7.4 km/h 47 % 0 mm
15:47 32.6 °C 20.5 °C 1012.4 hPa North 4.8 km/h 7.4 km/h 49 % 0 mm
15:52 32.6 °C 20.4 °C 1012.4 hPa North 2.9 km/h 5.6 km/h 49 % 0 mm
15:57 32.6 °C 19.8 °C 1012.4 hPa North 2.7 km/h 5.6 km/h 47 % 0 mm
15:59 32.6 °C 20.4 °C 1012.4 hPa NW 2.3 km/h 5.6 km/h 49 % 0 mm
16:04 32.6 °C 20.8 °C 1012.4 hPa North 0.2 km/h 5.6 km/h 50 % 0 mm
16:09 32.7 °C 19.9 °C 1012.4 hPa NNW 5 km/h 7.4 km/h 47 % 0 mm
16:14 32.8 °C 20.7 °C 1012.4 hPa NNE 3.1 km/h 5.6 km/h 49 % 0 mm
16:19 32.6 °C 19.1 °C 1012.4 hPa ENE 1.8 km/h 3.7 km/h 45 % 0 mm
16:24 32.3 °C 19.9 °C 1012.4 hPa NNE 3.4 km/h 5.6 km/h 48 % 0 mm
16:29 32.3 °C 20.2 °C 1012.4 hPa NE 1.3 km/h 3.7 km/h 49 % 0 mm
16:34 32.1 °C 20.4 °C 1012.4 hPa NE 2.4 km/h 5.6 km/h 50 % 0 mm
16:39 32.1 °C 19.7 °C 1012.4 hPa NNE 4.5 km/h 7.4 km/h 48 % 0 mm
16:44 32.1 °C 20.7 °C 1012.4 hPa NE 4.3 km/h 8 km/h 51 % 0 mm
16:49 31.9 °C 20.2 °C 1012.4 hPa NE 0.2 km/h 5.6 km/h 50 % 0 mm
16:54 31.9 °C 20.2 °C 1012.4 hPa NE 0.3 km/h 1.9 km/h 50 % 0 mm
16:59 31.8 °C 20.4 °C 1012.4 hPa Calm   1.9 km/h 51 % 0 mm
17:04 31.8 °C 20.7 °C 1012.4 hPa ESE 2.3 km/h 4.8 km/h 52 % 0 mm
17:09 31.7 °C 20 °C 1012.4 hPa ESE 0.8 km/h 1.9 km/h 50 % 0 mm
17:14 31.7 °C 20 °C 1012.1 hPa ENE 1.8 km/h 3.2 km/h 50 % 0 mm
17:20 31.3 °C 19.7 °C 1012.1 hPa NE 0.2 km/h 3.7 km/h 50 % 0 mm
17:25 31.2 °C 20.2 °C 1012.4 hPa NE 1 km/h 3.7 km/h 52 % 0 mm
17:30 31 °C 20.3 °C 1012.1 hPa Calm     53 % 0 mm
17:35 30.9 °C 19.6 °C 1012.1 hPa Calm   1.9 km/h 51 % 0 mm
17:40 30.8 °C 19.8 °C 1012.1 hPa Calm   3.7 km/h 52 % 0 mm
17:46 30.8 °C 19.5 °C 1012.1 hPa Calm     51 % 0 mm
17:51 30.6 °C 19.9 °C 1012.1 hPa Calm     53 % 0 mm
17:56 30.3 °C 20 °C 1012.1 hPa Calm     54 % 0 mm
18:01 30.2 °C 20.2 °C 1012.1 hPa Calm   1.9 km/h 55 % 0 mm
18:06 30.1 °C 19.8 °C 1012.1 hPa NNE 0.3 km/h 1.6 km/h 54 % 0 mm
18:11 30.1 °C 20.3 °C 1012.1 hPa SW 0.6 km/h 1.9 km/h 56 % 0 mm
18:16 29.9 °C 19.9 °C 1012.1 hPa Calm     55 % 0 mm
18:21 29.8 °C 19.8 °C 1012.1 hPa Calm     55 % 0 mm
18:26 29.8 °C 20.1 °C 1012.1 hPa WNW 0.3 km/h 1.9 km/h 56 % 0 mm
18:31 29.7 °C 20.3 °C 1012.1 hPa Calm     57 % 0 mm
18:36 29.6 °C 19.9 °C 1012.4 hPa WNW 0.2 km/h 1.9 km/h 56 % 0 mm
18:41 29.6 °C 20.1 °C 1012.1 hPa WNW 1 km/h 1.6 km/h 57 % 0 mm
18:46 29.4 °C 20.1 °C 1012.4 hPa West 0.6 km/h 5.6 km/h 57 % 0 mm
18:52 29.3 °C 20.2 °C 1012.4 hPa SSW 3.9 km/h 7.4 km/h 58 % 0 mm
18:57 29.2 °C 20.1 °C 1012.4 hPa SSW 0.8 km/h 5.6 km/h 58 % 0 mm
19:02 29.1 °C 20 °C 1012.4 hPa SSW 0.8 km/h 3.7 km/h 58 % 0 mm
19:07 28.9 °C 20.1 °C 1012.4 hPa WSW 0.2 km/h 1.9 km/h 59 % 0 mm
19:12 28.8 °C 19.9 °C 1012.4 hPa Calm   5.6 km/h 59 % 0 mm
19:17 28.6 °C 19.8 °C 1012.4 hPa SSE 1 km/h 5.6 km/h 59 % 0 mm
19:22 28.4 °C 19.9 °C 1012.8 hPa Calm     60 % 0 mm
19:27 28.2 °C 19.7 °C 1012.4 hPa Calm   1.9 km/h 60 % 0 mm
19:32 28.1 °C 19.8 °C 1012.8 hPa Calm   1.9 km/h 61 % 0 mm
19:37 27.9 °C 19.7 °C 1012.8 hPa SE 1.1 km/h 5.6 km/h 61 % 0 mm
19:42 27.7 °C 19.5 °C 1012.8 hPa SE 0.8 km/h 4.8 km/h 61 % 0 mm
19:47 27.6 °C 19.6 °C 1012.8 hPa Calm   1.9 km/h 62 % 0 mm
19:52 27.4 °C 19.7 °C 1012.8 hPa Calm     63 % 0 mm
19:57 27.2 °C 19.8 °C 1012.8 hPa Calm   1.6 km/h 64 % 0 mm
20:02 27.1 °C 19.9 °C 1012.8 hPa Calm     65 % 0 mm
20:07 26.9 °C 20 °C 1012.8 hPa SE 0.2 km/h 4.8 km/h 66 % 0 mm
20:13 26.7 °C 19.8 °C 1012.8 hPa SE 1 km/h 3.7 km/h 66 % 0 mm
20:18 26.5 °C 19.9 °C 1012.8 hPa South 0.2 km/h 1.9 km/h 67 % 0 mm
20:23 26.3 °C 19.7 °C 1012.8 hPa South 0.3 km/h 1.9 km/h 67 % 0 mm
20:28 26.1 °C 19.7 °C 1012.8 hPa South 0.2 km/h 1.9 km/h 68 % 0 mm
20:33 25.9 °C 19.8 °C 1013.1 hPa South 0.3 km/h 1.9 km/h 69 % 0 mm
20:38 25.8 °C 19.7 °C 1013.1 hPa Calm   1.9 km/h 69 % 0 mm
20:43 25.7 °C 19.8 °C 1013.1 hPa Calm   1.6 km/h 70 % 0 mm
20:48 25.4 °C 19.6 °C 1013.1 hPa SSE 0.2 km/h   70 % 0 mm
20:53 25.3 °C 19.7 °C 1013.1 hPa SSE 0.2 km/h 1.9 km/h 71 % 0 mm
20:58 25.2 °C 19.6 °C 1013.4 hPa SSE 0.3 km/h 1.9 km/h 71 % 0 mm
21:03 25.1 °C 19.7 °C 1013.4 hPa SSE 0.2 km/h 1.9 km/h 72 % 0 mm
21:08 24.9 °C 19.8 °C 1013.4 hPa Calm   1.9 km/h 73 % 0 mm
21:13 24.8 °C 19.7 °C 1013.4 hPa SSE 0.3 km/h 1.9 km/h 73 % 0 mm
21:18 24.7 °C 19.8 °C 1013.4 hPa SSE 0.5 km/h 1.9 km/h 74 % 0 mm
21:23 24.6 °C 19.9 °C 1013.8 hPa SSE 0.2 km/h 1.9 km/h 75 % 0 mm
21:28 24.5 °C 19.8 °C 1013.8 hPa Calm   1.9 km/h 75 % 0 mm
21:33 24.4 °C 19.9 °C 1013.8 hPa SSE 0.2 km/h 1.9 km/h 76 % 0 mm
21:38 24.3 °C 20.1 °C 1013.8 hPa SSE 0.3 km/h 1.9 km/h 77 % 0 mm
21:43 24.2 °C 19.9 °C 1013.8 hPa Calm   1.9 km/h 77 % 0 mm
21:48 24.1 °C 20.1 °C 1013.8 hPa SSE 0.2 km/h   78 % 0 mm
21:53 24.1 °C 20.2 °C 1014.1 hPa SSE 0.6 km/h 1.9 km/h 79 % 0 mm
21:58 23.9 °C 20.1 °C 1014.1 hPa SSE 0.2 km/h 1.9 km/h 79 % 0 mm
22:03 23.9 °C 20 °C 1013.8 hPa SSE 0.5 km/h 1.9 km/h 79 % 0 mm
22:08 23.8 °C 20.2 °C 1014.1 hPa SSE 0.3 km/h 1.9 km/h 80 % 0 mm
22:13 23.8 °C 20.3 °C 1014.1 hPa Calm   1.9 km/h 81 % 0 mm
22:18 23.7 °C 20.2 °C 1014.1 hPa SSE 0.3 km/h   81 % 0 mm
22:23 23.6 °C 20.2 °C 1014.1 hPa SSE 0.2 km/h 3.7 km/h 81 % 0 mm
22:28 23.6 °C 20.1 °C 1014.1 hPa Calm   1.9 km/h 81 % 0 mm
22:33 23.5 °C 20.1 °C 1014.1 hPa SSE 1.8 km/h 5.6 km/h 81 % 0 mm
22:39 23.5 °C 20.2 °C 1014.1 hPa Calm   1.9 km/h 82 % 0 mm
22:44 23.4 °C 20.2 °C 1014.1 hPa Calm   1.9 km/h 82 % 0 mm
22:49 23.4 °C 20.2 °C 1014.1 hPa SSE 0.2 km/h 1.9 km/h 82 % 0 mm
22:54 23.4 °C 20.3 °C 1014.1 hPa SSE 0.3 km/h 1.9 km/h 83 % 0 mm
22:59 23.3 °C 20.3 °C 1014.1 hPa SSE 0.6 km/h 3.7 km/h 83 % 0 mm
23:04 23.3 °C 20.2 °C 1014.1 hPa SSE 0.2 km/h 1.9 km/h 83 % 0 mm
23:09 23.2 °C 20.2 °C 1014.1 hPa SSE 0.5 km/h 1.9 km/h 83 % 0 mm
23:14 23.2 °C 20.1 °C 1014.1 hPa Calm   1.9 km/h 83 % 0 mm
23:19 23.2 °C 20.1 °C 1014.1 hPa SSE 0.3 km/h 3.7 km/h 83 % 0 mm
23:24 23.1 °C 20.1 °C 1014.1 hPa Calm   1.9 km/h 83 % 0 mm
23:29 23.1 °C 20.1 °C 1014.1 hPa SSE 0.2 km/h 1.9 km/h 83 % 0 mm
23:34 23.1 °C 20 °C 1014.1 hPa SSE 1 km/h 3.7 km/h 83 % 0 mm
23:40 23.1 °C 20 °C 1014.1 hPa SSE 0.3 km/h 3.7 km/h 83 % 0 mm
23:45 23 °C 19.9 °C 1014.1 hPa SSE 0.3 km/h 3.7 km/h 83 % 0 mm
23:50 23 °C 19.9 °C 1014.4 hPa SW 0.2 km/h 3.7 km/h 83 % 0 mm
23:55 22.9 °C 19.9 °C 1014.4 hPa SW 0.6 km/h 5.6 km/h 83 % 0 mm
Crab Meadow Weather
Compliments of Weather Underground - 3 mb

Script developed by  Jim McMurry - jmcmurry@mwt.net Adapted for the template by  Wim van der Kuil - Leuven-Template.eu

Weather Terms: Heavy Snow Warning - Snowfall of 6 inches or more in 12 hours or less, or 8 inches or more in 24 hours or less.